createdAt,value
2019-05-02T00:01:17.798Z,57.30
2019-05-02T00:03:52.041Z,56.50
2019-05-02T00:06:26.356Z,55.50
2019-05-02T00:08:59.776Z,55.40
2019-05-02T00:11:34.574Z,55.40
2019-05-02T00:14:10.014Z,55.20
2019-05-02T00:16:45.186Z,54.80
2019-05-02T00:19:19.479Z,54.50
2019-05-02T00:21:53.493Z,55.00
2019-05-02T00:24:26.862Z,55.50
2019-05-02T00:27:01.339Z,55.40
2019-05-02T00:29:35.633Z,56.10
2019-05-02T00:32:10.133Z,56.10
2019-05-02T00:34:43.868Z,56.40
2019-05-02T00:37:18.807Z,57.30
2019-05-02T00:39:52.877Z,58.40
2019-05-02T00:42:26.583Z,58.40
2019-05-02T00:45:00.308Z,57.90
2019-05-02T00:47:47.924Z,56.90
2019-05-02T00:50:19.087Z,56.00
2019-05-02T00:52:53.307Z,55.50
2019-05-02T00:55:28.844Z,55.40
2019-05-02T00:58:03.246Z,55.30
2019-05-02T01:00:54.857Z,56.00
2019-05-02T01:03:32.082Z,56.00
2019-05-02T01:06:13.969Z,55.40
2019-05-02T01:08:42.358Z,55.00
2019-05-02T01:11:16.552Z,54.60
2019-05-02T01:13:55.646Z,54.10
2019-05-02T01:16:25.680Z,53.80
2019-05-02T01:18:59.151Z,52.60
2019-05-02T01:21:34.136Z,53.50
2019-05-02T01:24:09.191Z,54.60
2019-05-02T01:26:48.808Z,55.20
2019-05-02T01:29:37.241Z,55.70
2019-05-02T01:32:17.507Z,54.50
2019-05-02T01:35:05.252Z,54.20
2019-05-02T01:38:15.740Z,54.40
2019-05-02T01:40:53.370Z,55.10
2019-05-02T01:43:28.229Z,56.10
2019-05-02T01:46:02.222Z,57.10
2019-05-02T01:48:40.168Z,57.60
2019-05-02T01:51:12.104Z,56.80
2019-05-02T01:53:46.536Z,56.50
2019-05-02T01:56:20.750Z,56.90
2019-05-02T01:58:57.712Z,57.30
2019-05-02T02:01:29.127Z,58.20
2019-05-02T02:04:03.195Z,59.50
2019-05-02T02:06:38.861Z,60.00
2019-05-02T02:09:13.207Z,60.20
2019-05-02T02:11:46.995Z,60.00
2019-05-02T02:14:20.676Z,59.40
2019-05-02T02:16:53.896Z,59.50
2019-05-02T02:19:43.163Z,60.00
2019-05-02T02:22:39.247Z,61.00
2019-05-02T02:25:32.175Z,62.20
2019-05-02T02:28:03.796Z,61.20
2019-05-02T02:30:37.998Z,60.70
2019-05-02T02:33:11.834Z,60.50
2019-05-02T02:35:50.368Z,60.40
2019-05-02T02:38:26.904Z,58.20
2019-05-02T02:40:56.424Z,57.30
2019-05-02T02:43:34.579Z,57.60
2019-05-02T02:46:37.018Z,57.60
2019-05-02T02:49:05.809Z,57.30
2019-05-02T02:51:40.001Z,57.60
2019-05-02T02:54:13.157Z,58.10
2019-05-02T02:56:46.991Z,59.00
2019-05-02T02:59:26.131Z,60.80
2019-05-02T03:01:56.575Z,60.20
2019-05-02T03:04:29.757Z,59.60
2019-05-02T03:07:03.571Z,59.20
2019-05-02T03:09:37.666Z,59.00
2019-05-02T03:12:28.795Z,59.70
2019-05-02T03:15:03.717Z,60.00
2019-05-02T03:17:37.333Z,60.50
2019-05-02T03:20:09.678Z,61.00
2019-05-02T03:22:43.931Z,60.70
2019-05-02T03:25:24.390Z,60.60
2019-05-02T03:27:52.952Z,60.60
2019-05-02T03:30:35.310Z,61.60
2019-05-02T03:33:09.604Z,62.40
2019-05-02T03:35:48.156Z,63.50
2019-05-02T03:38:14.102Z,64.60
2019-05-02T03:40:48.317Z,65.60
2019-05-02T03:43:25.829Z,65.90
2019-05-02T03:45:58.026Z,65.30
2019-05-02T03:48:32.122Z,64.70
2019-05-02T03:51:19.545Z,64.80
2019-05-02T03:53:40.978Z,64.70
2019-05-02T03:56:15.160Z,64.70
2019-05-02T03:58:56.392Z,63.20
2019-05-02T04:01:24.401Z,63.40
2019-05-02T04:03:57.244Z,63.50
2019-05-02T04:06:31.529Z,63.30
2019-05-02T04:09:06.877Z,62.80
2019-05-02T04:11:41.271Z,61.50
2019-05-02T04:14:23.360Z,61.40
2019-05-02T04:16:55.180Z,62.00
2019-05-02T04:19:28.772Z,61.70
2019-05-02T04:22:08.974Z,61.70
2019-05-02T04:24:39.732Z,61.20
2019-05-02T04:27:15.432Z,60.30
2019-05-02T04:29:49.033Z,58.90
2019-05-02T04:32:22.399Z,59.30
2019-05-02T04:34:57.982Z,58.30
2019-05-02T04:37:34.241Z,56.80
2019-05-02T04:40:11.259Z,56.50
2019-05-02T04:42:41.589Z,56.60
2019-05-02T04:45:28.306Z,56.30
2019-05-02T04:47:58.623Z,57.60
2019-05-02T04:50:28.561Z,59.40
2019-05-02T04:53:01.214Z,60.00
2019-05-02T04:55:37.909Z,60.50
2019-05-02T04:58:11.293Z,61.10
2019-05-02T05:00:50.166Z,59.20
2019-05-02T05:03:21.253Z,58.80
2019-05-02T05:06:01.539Z,57.50
2019-05-02T05:08:32.088Z,56.70
2019-05-02T05:11:07.767Z,56.50
2019-05-02T05:13:41.812Z,56.10
2019-05-02T05:16:15.845Z,56.10
2019-05-02T05:18:53.142Z,56.60
2019-05-02T05:21:28.591Z,58.30
2019-05-02T05:24:20.872Z,59.30
2019-05-02T05:26:57.853Z,59.20
2019-05-02T05:29:33.248Z,58.70
2019-05-02T05:32:09.771Z,59.50
2019-05-02T05:34:40.848Z,58.90
2019-05-02T05:37:14.060Z,60.60
2019-05-02T05:39:52.416Z,60.90
2019-05-02T05:42:30.207Z,61.50
2019-05-02T05:45:03.938Z,60.80
2019-05-02T05:47:34.268Z,61.40
2019-05-02T05:50:08.359Z,62.30
2019-05-02T05:52:42.911Z,61.80
2019-05-02T05:55:20.405Z,61.20
2019-05-02T05:57:59.634Z,62.30
2019-05-02T06:00:28.447Z,62.70
2019-05-02T06:03:13.076Z,63.10
2019-05-02T06:05:40.978Z,62.30
2019-05-02T06:08:18.390Z,62.60
2019-05-02T06:10:50.068Z,62.10
2019-05-02T06:13:24.444Z,61.00
2019-05-02T06:16:02.560Z,59.80
2019-05-02T06:18:36.329Z,59.70
2019-05-02T06:21:10.788Z,59.60
2019-05-02T06:23:45.202Z,60.40
2019-05-02T06:26:18.912Z,61.30
2019-05-02T06:28:52.718Z,59.90
2019-05-02T06:31:26.799Z,60.50
2019-05-02T06:34:02.211Z,60.70
2019-05-02T06:36:36.813Z,60.00
2019-05-02T06:39:11.951Z,60.00
2019-05-02T06:41:45.489Z,58.40
2019-05-02T06:44:24.169Z,59.60
2019-05-02T06:46:59.110Z,59.50
2019-05-02T06:49:30.736Z,60.00
2019-05-02T06:52:04.486Z,59.50
2019-05-02T06:54:38.638Z,61.00
2019-05-02T06:57:12.589Z,60.70
2019-05-02T06:59:49.998Z,60.00
2019-05-02T07:02:22.534Z,58.50
2019-05-02T07:04:56.120Z,58.30
2019-05-02T07:07:34.214Z,59.20
2019-05-02T07:10:07.365Z,59.10
2019-05-02T07:12:41.021Z,58.10
2019-05-02T07:15:33.652Z,58.40
2019-05-02T07:18:12.253Z,58.20
2019-05-02T07:20:45.069Z,59.40
2019-05-02T07:23:18.694Z,60.00
2019-05-02T07:25:52.812Z,59.70
2019-05-02T07:28:26.072Z,58.10
2019-05-02T07:31:00.312Z,58.10
2019-05-02T07:33:37.536Z,58.20
2019-05-02T07:36:09.439Z,59.00
2019-05-02T07:38:43.651Z,59.00
2019-05-02T07:41:17.385Z,57.20
2019-05-02T07:43:56.270Z,58.40
2019-05-02T07:46:25.993Z,56.70
2019-05-02T07:48:58.982Z,55.10
2019-05-02T07:51:32.301Z,56.30
2019-05-02T07:54:05.356Z,56.10
2019-05-02T07:56:37.312Z,56.00
2019-05-02T07:59:10.265Z,56.50
2019-05-02T08:01:44.920Z,57.00
2019-05-02T08:04:19.906Z,56.30
2019-05-02T08:06:54.100Z,56.50
2019-05-02T08:09:26.787Z,56.50
2019-05-02T08:12:00.154Z,55.60
2019-05-02T08:14:34.476Z,54.00
2019-05-02T08:17:16.330Z,55.50
2019-05-02T08:19:43.282Z,54.00
2019-05-02T08:22:16.837Z,54.20
2019-05-02T08:24:50.941Z,53.70
2019-05-02T08:27:43.290Z,53.90
2019-05-02T08:30:28.152Z,53.50
2019-05-02T08:33:02.058Z,53.30
2019-05-02T08:35:35.869Z,54.70
2019-05-02T08:38:12.686Z,54.70
2019-05-02T08:40:47.702Z,53.70
2019-05-02T08:43:21.285Z,53.50
2019-05-02T08:45:55.022Z,54.60
2019-05-02T08:48:28.780Z,52.50
2019-05-02T08:51:02.112Z,51.60
2019-05-02T08:53:36.327Z,51.00
2019-05-02T08:56:09.901Z,52.20
2019-05-02T08:58:44.873Z,52.30
2019-05-02T09:01:19.406Z,52.90
2019-05-02T09:03:56.701Z,52.40
2019-05-02T09:06:28.706Z,50.20
2019-05-02T09:09:02.726Z,50.80
2019-05-02T09:11:36.942Z,51.30
2019-05-02T09:14:12.463Z,50.30
2019-05-02T09:16:46.014Z,51.30
2019-05-02T09:19:21.380Z,50.90
2019-05-02T09:21:55.849Z,49.70
2019-05-02T09:24:28.720Z,49.60
2019-05-02T09:27:02.483Z,49.20
2019-05-02T09:29:37.337Z,49.80
2019-05-02T09:32:12.457Z,49.80
2019-05-02T09:34:44.869Z,49.40
2019-05-02T09:37:18.513Z,48.30
2019-05-02T09:39:52.524Z,48.90
2019-05-02T09:42:25.996Z,49.10
2019-05-02T09:45:00.149Z,46.50
2019-05-02T09:47:46.761Z,46.40
2019-05-02T09:50:13.073Z,45.20
2019-05-02T09:52:45.399Z,47.10
2019-05-02T09:55:19.945Z,47.80
2019-05-02T09:57:52.074Z,48.60
2019-05-02T10:00:46.554Z,49.00
2019-05-02T10:03:19.698Z,50.00
2019-05-02T10:05:53.332Z,48.90
2019-05-02T10:08:27.431Z,49.40
2019-05-02T10:11:02.812Z,49.70
2019-05-02T10:13:37.274Z,50.30
2019-05-02T10:16:12.244Z,48.90
2019-05-02T10:18:45.523Z,49.50
2019-05-02T10:21:19.399Z,49.00
2019-05-02T10:23:58.899Z,48.90
2019-05-02T10:26:28.758Z,48.90
2019-05-02T10:29:02.359Z,49.20
2019-05-02T10:31:37.858Z,47.90
2019-05-02T10:34:16.213Z,46.90
2019-05-02T10:36:46.142Z,47.60
2019-05-02T10:39:20.395Z,47.00
2019-05-02T10:41:54.058Z,46.10
2019-05-02T10:44:32.650Z,45.90
2019-05-02T10:47:03.252Z,45.00
2019-05-02T10:49:59.271Z,46.20
2019-05-02T10:52:34.232Z,45.60
2019-05-02T10:55:07.880Z,44.50
2019-05-02T10:57:42.143Z,46.80
2019-05-02T11:00:18.052Z,46.90
2019-05-02T11:03:22.529Z,46.40
2019-05-02T11:06:05.424Z,45.70
2019-05-02T11:08:42.236Z,43.80
2019-05-02T11:11:12.938Z,43.50
2019-05-02T11:14:00.790Z,42.50
2019-05-02T11:16:52.526Z,42.60
2019-05-02T11:19:52.366Z,43.80
2019-05-02T11:22:26.217Z,45.40
2019-05-02T11:25:01.840Z,45.60
2019-05-02T11:27:35.365Z,44.90
2019-05-02T11:30:12.282Z,46.20
2019-05-02T11:32:47.903Z,45.50
2019-05-02T11:35:22.376Z,45.60
2019-05-02T11:37:56.244Z,44.20
2019-05-02T11:40:32.027Z,44.30
2019-05-02T11:43:06.883Z,44.20
2019-05-02T11:45:42.477Z,43.90
2019-05-02T11:48:16.444Z,43.20
2019-05-02T11:50:49.697Z,41.60
2019-05-02T11:53:28.467Z,41.40
2019-05-02T11:55:58.256Z,41.20
2019-05-02T11:58:33.102Z,40.30
2019-05-02T12:01:05.788Z,41.80
2019-05-02T12:03:46.066Z,41.50
2019-05-02T12:06:19.822Z,40.50
2019-05-02T12:08:53.617Z,40.70
2019-05-02T12:11:26.891Z,41.60
2019-05-02T12:14:01.775Z,41.30
2019-05-02T12:16:34.995Z,39.40
2019-05-02T12:19:11.352Z,39.40
2019-05-02T12:21:42.053Z,38.60
2019-05-02T12:24:15.269Z,39.10
2019-05-02T12:26:48.995Z,38.80
2019-05-02T12:29:30.039Z,39.90
2019-05-02T12:32:04.264Z,40.00
2019-05-02T12:34:38.574Z,40.30
2019-05-02T12:37:14.441Z,40.90
2019-05-02T12:39:48.574Z,38.90
2019-05-02T12:42:23.945Z,37.90
2019-05-02T12:44:57.692Z,38.60
2019-05-02T12:47:31.909Z,39.50
2019-05-02T12:50:05.763Z,39.60
2019-05-02T12:52:39.534Z,39.10
2019-05-02T12:55:13.829Z,39.00
2019-05-02T12:57:48.467Z,37.20
2019-05-02T13:00:22.875Z,36.90
2019-05-02T13:03:18.307Z,37.20
2019-05-02T13:05:52.226Z,36.80
2019-05-02T13:08:27.079Z,34.70
2019-05-02T13:11:17.679Z,34.00
2019-05-02T13:13:51.231Z,33.70
2019-05-02T13:16:24.679Z,34.50
2019-05-02T13:18:57.248Z,33.40
2019-05-02T13:21:42.205Z,32.80
2019-05-02T13:24:42.310Z,33.80
2019-05-02T13:27:18.846Z,34.20
2019-05-02T13:29:52.409Z,34.50
2019-05-02T13:32:42.822Z,34.20
2019-05-02T13:35:22.271Z,34.60
2019-05-02T13:37:58.120Z,34.30
2019-05-02T13:40:38.115Z,36.00
2019-05-02T13:43:12.524Z,36.20
2019-05-02T13:46:02.830Z,36.40
2019-05-02T13:48:36.133Z,37.20
2019-05-02T13:51:11.767Z,37.50
2019-05-02T13:53:57.977Z,37.10
2019-05-02T13:56:49.875Z,35.80
2019-05-02T13:59:24.391Z,35.00
2019-05-02T14:01:58.748Z,35.70
2019-05-02T14:04:32.692Z,35.60
2019-05-02T14:07:11.864Z,36.20
2019-05-02T14:09:53.016Z,34.80
2019-05-02T14:12:45.624Z,34.70
2019-05-02T14:15:23.349Z,33.50
2019-05-02T14:17:56.406Z,33.20
2019-05-02T14:20:30.619Z,34.10
2019-05-02T14:23:04.862Z,33.70
2019-05-02T14:25:39.048Z,33.90
2019-05-02T14:28:13.304Z,32.90
2019-05-02T14:30:47.510Z,31.70
2019-05-02T14:33:23.675Z,30.10
2019-05-02T14:35:57.789Z,30.50
2019-05-02T14:38:32.123Z,30.70
2019-05-02T14:41:13.873Z,30.80
2019-05-02T14:43:56.883Z,29.00
2019-05-02T14:46:35.476Z,28.90
2019-05-02T14:49:06.480Z,28.10
2019-05-02T14:51:41.740Z,27.80
2019-05-02T14:54:15.391Z,27.80
2019-05-02T14:56:53.489Z,27.60
2019-05-02T14:59:29.008Z,26.60
2019-05-02T15:02:07.612Z,26.80
2019-05-02T15:04:44.579Z,26.60
2019-05-02T15:07:17.548Z,26.20
2019-05-02T15:09:57.085Z,25.10
2019-05-02T15:12:28.564Z,24.10
2019-05-02T15:15:02.635Z,22.50
2019-05-02T15:17:37.790Z,23.20
2019-05-02T15:20:13.023Z,25.00
2019-05-02T15:22:47.093Z,25.40
2019-05-02T15:25:21.753Z,25.10
2019-05-02T15:28:00.001Z,24.90
2019-05-02T15:30:31.448Z,25.60
2019-05-02T15:33:12.633Z,24.50
2019-05-02T15:35:52.662Z,25.70
2019-05-02T15:38:28.213Z,25.90
2019-05-02T15:41:07.096Z,26.90
2019-05-02T15:43:39.408Z,27.20
2019-05-02T15:46:15.650Z,27.20
2019-05-02T15:48:46.604Z,27.60
2019-05-02T15:51:20.400Z,27.60
2019-05-02T15:54:08.138Z,27.90
2019-05-02T15:57:00.137Z,29.40
2019-05-02T15:59:37.557Z,29.10
2019-05-02T16:02:17.635Z,29.40
2019-05-02T16:04:52.135Z,29.80
2019-05-02T16:07:25.431Z,30.00
2019-05-02T16:10:01.239Z,30.10
2019-05-02T16:12:36.193Z,29.90
2019-05-02T16:15:18.189Z,29.80
2019-05-02T16:17:46.935Z,28.60
2019-05-02T16:20:34.062Z,29.20
2019-05-02T16:23:08.106Z,29.50
2019-05-02T16:25:42.883Z,29.50
2019-05-02T16:28:16.808Z,29.70
2019-05-02T16:30:52.549Z,29.40
2019-05-02T16:33:26.890Z,30.00
2019-05-02T16:36:02.668Z,29.90
2019-05-02T16:38:36.228Z,31.00
2019-05-02T16:41:11.393Z,30.70
2019-05-02T16:43:45.873Z,30.80
2019-05-02T16:46:21.599Z,30.90
2019-05-02T16:48:55.426Z,30.70
2019-05-02T16:51:32.353Z,31.70
2019-05-02T16:54:05.134Z,31.90
2019-05-02T16:56:44.432Z,32.10
2019-05-02T16:59:16.876Z,32.30
2019-05-02T17:01:52.633Z,31.10
2019-05-02T17:04:25.121Z,31.00
2019-05-02T17:07:02.151Z,31.20
2019-05-02T17:09:43.280Z,31.20
2019-05-02T17:12:16.985Z,31.50
2019-05-02T17:15:07.833Z,31.90
2019-05-02T17:17:54.194Z,31.80
2019-05-02T17:20:26.291Z,31.00
2019-05-02T17:23:05.160Z,31.30
2019-05-02T17:25:34.997Z,31.30
2019-05-02T17:28:10.517Z,31.50
2019-05-02T17:30:43.709Z,31.40
2019-05-02T17:33:17.552Z,31.40
2019-05-02T17:35:53.758Z,31.20
2019-05-02T17:38:29.140Z,31.60
2019-05-02T17:41:04.705Z,33.60
2019-05-02T17:43:42.143Z,34.80
2019-05-02T17:46:18.658Z,35.70
2019-05-02T17:48:52.747Z,35.60
2019-05-02T17:51:37.694Z,34.50
2019-05-02T17:54:12.027Z,34.30
2019-05-02T17:56:45.596Z,35.00
2019-05-02T17:59:19.675Z,35.10
2019-05-02T18:01:53.774Z,34.70
2019-05-02T18:04:28.111Z,34.40
2019-05-02T18:07:02.020Z,34.60
2019-05-02T18:09:36.157Z,35.00
2019-05-02T18:12:12.650Z,34.60
2019-05-02T18:14:45.682Z,34.40
2019-05-02T18:17:21.907Z,33.20
2019-05-02T18:19:56.608Z,32.90
2019-05-02T18:22:34.686Z,32.80
2019-05-02T18:25:05.795Z,32.80
2019-05-02T18:27:38.208Z,32.30
2019-05-02T18:30:17.236Z,31.70
2019-05-02T18:32:47.802Z,31.90
2019-05-02T18:35:21.911Z,32.50
2019-05-02T18:37:54.369Z,32.60
2019-05-02T18:40:29.812Z,33.80
2019-05-02T18:43:05.364Z,34.40
2019-05-02T18:45:38.390Z,34.10
2019-05-02T18:48:12.572Z,34.50
2019-05-02T18:50:47.645Z,34.10
2019-05-02T18:53:24.279Z,34.20
2019-05-02T18:55:56.825Z,34.70
2019-05-02T18:58:31.788Z,35.40
2019-05-02T19:01:08.378Z,35.50
2019-05-02T19:03:41.824Z,35.50
2019-05-02T19:06:14.546Z,35.60
2019-05-02T19:08:52.235Z,35.00
2019-05-02T19:11:26.721Z,34.70
2019-05-02T19:13:58.757Z,36.20
2019-05-02T19:16:32.111Z,37.00
2019-05-02T19:19:05.886Z,36.70
2019-05-02T19:21:39.556Z,38.60
2019-05-02T19:24:13.994Z,38.60
2019-05-02T19:26:49.412Z,38.40
2019-05-02T19:29:27.674Z,38.00
2019-05-02T19:31:59.945Z,38.20
2019-05-02T19:34:33.468Z,38.00
2019-05-02T19:37:07.263Z,37.90
2019-05-02T19:39:44.708Z,37.30
2019-05-02T19:42:17.074Z,37.20
2019-05-02T19:44:52.788Z,37.50
2019-05-02T19:47:25.894Z,36.90
2019-05-02T19:49:59.853Z,36.90
2019-05-02T19:52:38.880Z,37.20
2019-05-02T19:55:14.222Z,37.40
2019-05-02T19:57:44.514Z,37.10
2019-05-02T20:00:17.238Z,37.00
2019-05-02T20:02:52.153Z,36.80
2019-05-02T20:05:25.774Z,37.20
2019-05-02T20:07:57.905Z,37.60
2019-05-02T20:10:32.165Z,37.80
2019-05-02T20:13:05.434Z,38.20
2019-05-02T20:15:42.243Z,38.30
2019-05-02T20:18:15.621Z,39.00
2019-05-02T20:20:59.684Z,39.40
2019-05-02T20:23:35.554Z,39.30
2019-05-02T20:26:09.390Z,39.20
2019-05-02T20:28:42.249Z,39.10
2019-05-02T20:31:15.848Z,39.30
2019-05-02T20:33:49.256Z,40.10
2019-05-02T20:36:22.779Z,40.90
2019-05-02T20:38:57.519Z,41.00
2019-05-02T20:41:30.085Z,41.00
2019-05-02T20:44:02.704Z,40.80
2019-05-02T20:46:35.605Z,40.00
2019-05-02T20:49:08.642Z,40.00
2019-05-02T20:51:42.400Z,39.60
2019-05-02T20:54:16.125Z,39.50
2019-05-02T20:56:48.073Z,39.20
2019-05-02T20:59:21.924Z,39.10
2019-05-02T21:01:54.808Z,39.10
2019-05-02T21:04:27.381Z,39.40
2019-05-02T21:07:09.697Z,39.30
2019-05-02T21:10:01.984Z,39.40
2019-05-02T21:12:36.411Z,38.90
2019-05-02T21:15:12.325Z,38.80
2019-05-02T21:17:43.971Z,38.80
2019-05-02T21:20:16.949Z,38.90
2019-05-02T21:22:50.217Z,38.10
2019-05-02T21:25:23.427Z,38.00
2019-05-02T21:27:55.911Z,37.70
2019-05-02T21:30:32.123Z,38.40
2019-05-02T21:33:04.117Z,38.20
2019-05-02T21:35:36.644Z,38.20
2019-05-02T21:38:09.044Z,38.00
2019-05-02T21:40:42.292Z,37.60
2019-05-02T21:43:16.086Z,37.60
2019-05-02T21:45:48.059Z,37.60
2019-05-02T21:48:23.612Z,37.60
2019-05-02T21:51:08.316Z,37.80
2019-05-02T21:53:56.077Z,38.30
2019-05-02T21:56:36.968Z,38.30
2019-05-02T21:59:12.180Z,39.00
2019-05-02T22:01:51.929Z,38.30
2019-05-02T22:04:25.657Z,38.80
2019-05-02T22:06:59.060Z,39.50
2019-05-02T22:09:32.429Z,39.30
2019-05-02T22:12:05.539Z,40.30
2019-05-02T22:14:38.026Z,39.90
2019-05-02T22:17:12.588Z,39.30
2019-05-02T22:19:45.569Z,39.50
2019-05-02T22:22:18.327Z,39.20
2019-05-02T22:24:52.818Z,39.30
2019-05-02T22:27:26.945Z,39.40
2019-05-02T22:30:01.950Z,40.20
2019-05-02T22:32:34.973Z,39.20
2019-05-02T22:35:07.130Z,39.80
2019-05-02T22:37:41.151Z,40.30
2019-05-02T22:40:15.920Z,40.90
2019-05-02T22:42:48.352Z,41.10
2019-05-02T22:45:21.831Z,40.70
2019-05-02T22:47:54.420Z,41.00
2019-05-02T22:50:28.641Z,40.80
2019-05-02T22:53:01.499Z,41.10
2019-05-02T22:55:35.379Z,41.30
2019-05-02T22:58:09.045Z,41.20
2019-05-02T23:00:42.742Z,41.30
2019-05-02T23:03:16.550Z,41.30
2019-05-02T23:05:52.151Z,41.50
2019-05-02T23:08:25.743Z,40.90
2019-05-02T23:10:59.477Z,41.20
2019-05-02T23:13:33.146Z,41.50
2019-05-02T23:16:07.426Z,41.80
2019-05-02T23:18:42.620Z,41.00
2019-05-02T23:21:16.034Z,40.50
2019-05-02T23:23:49.765Z,40.10
2019-05-02T23:26:37.982Z,40.60
2019-05-02T23:29:12.829Z,41.50
2019-05-02T23:31:46.821Z,41.50
2019-05-02T23:34:23.330Z,41.40
2019-05-02T23:36:56.821Z,41.60
2019-05-02T23:39:32.273Z,41.40
2019-05-02T23:42:05.366Z,41.50
2019-05-02T23:44:39.539Z,41.20
2019-05-02T23:47:12.873Z,41.40
2019-05-02T23:49:45.729Z,42.40
2019-05-02T23:52:19.600Z,42.80
2019-05-02T23:54:53.403Z,43.10
2019-05-02T23:57:26.120Z,42.60
2019-05-02T23:59:59.826Z,42.50
